sensor_id;sensor_type;location;lat;lon;timestamp;P1;durP1;ratioP1;P2;durP2;ratioP2
35488;SDS011;21602;55.670;37.578;2023-09-19T00:00:34;20.00;;;12.45;;
35488;SDS011;21602;55.670;37.578;2023-09-19T00:03:01;18.07;;;11.23;;
35488;SDS011;21602;55.670;37.578;2023-09-19T00:05:28;15.93;;;11.30;;
35488;SDS011;21602;55.670;37.578;2023-09-19T00:07:55;18.23;;;10.95;;
35488;SDS011;21602;55.670;37.578;2023-09-19T00:10:25;22.58;;;12.13;;
35488;SDS011;21602;55.670;37.578;2023-09-19T00:12:55;22.35;;;12.32;;
35488;SDS011;21602;55.670;37.578;2023-09-19T00:15:25;20.75;;;12.32;;
35488;SDS011;21602;55.670;37.578;2023-09-19T00:17:54;21.08;;;11.35;;
35488;SDS011;21602;55.670;37.578;2023-09-19T00:20:21;25.52;;;12.25;;
35488;SDS011;21602;55.670;37.578;2023-09-19T00:22:49;22.60;;;12.88;;
35488;SDS011;21602;55.670;37.578;2023-09-19T00:25:19;27.83;;;12.15;;
35488;SDS011;21602;55.670;37.578;2023-09-19T00:27:46;23.10;;;12.20;;
35488;SDS011;21602;55.670;37.578;2023-09-19T00:30:17;24.95;;;13.68;;
35488;SDS011;21602;55.670;37.578;2023-09-19T00:32:47;29.30;;;15.05;;
35488;SDS011;21602;55.670;37.578;2023-09-19T00:35:15;31.25;;;15.38;;
35488;SDS011;21602;55.670;37.578;2023-09-19T00:37:42;22.58;;;15.27;;
35488;SDS011;21602;55.670;37.578;2023-09-19T00:40:09;29.83;;;16.98;;
35488;SDS011;21602;55.670;37.578;2023-09-19T00:42:47;25.70;;;16.80;;
35488;SDS011;21602;55.670;37.578;2023-09-19T00:45:15;30.17;;;16.88;;
35488;SDS011;21602;55.670;37.578;2023-09-19T00:47:50;39.35;;;18.05;;
35488;SDS011;21602;55.670;37.578;2023-09-19T00:50:18;23.38;;;15.70;;
35488;SDS011;21602;55.670;37.578;2023-09-19T00:52:47;28.17;;;19.27;;
35488;SDS011;21602;55.670;37.578;2023-09-19T00:55:15;29.13;;;19.33;;
35488;SDS011;21602;55.670;37.578;2023-09-19T00:57:46;31.63;;;18.83;;
35488;SDS011;21602;55.670;37.578;2023-09-19T01:00:15;27.08;;;17.67;;
35488;SDS011;21602;55.670;37.578;2023-09-19T01:02:44;26.35;;;18.92;;
35488;SDS011;21602;55.670;37.578;2023-09-19T01:05:13;32.78;;;19.25;;
35488;SDS011;21602;55.670;37.578;2023-09-19T01:07:39;34.55;;;20.88;;
35488;SDS011;21602;55.670;37.578;2023-09-19T01:10:14;36.55;;;20.85;;
35488;SDS011;21602;55.670;37.578;2023-09-19T01:29:37;35.38;;;23.60;;
35488;SDS011;21602;55.670;37.578;2023-09-19T01:32:06;37.28;;;26.83;;
35488;SDS011;21602;55.670;37.578;2023-09-19T01:34:54;39.72;;;26.85;;
35488;SDS011;21602;55.670;37.578;2023-09-19T01:37:24;38.70;;;27.40;;
35488;SDS011;21602;55.670;37.578;2023-09-19T01:39:55;38.95;;;27.45;;
35488;SDS011;21602;55.670;37.578;2023-09-19T01:51:06;36.15;;;28.00;;
35488;SDS011;21602;55.670;37.578;2023-09-19T01:56:31;40.45;;;29.50;;
35488;SDS011;21602;55.670;37.578;2023-09-19T01:59:02;50.63;;;31.40;;
35488;SDS011;21602;55.670;37.578;2023-09-19T02:01:32;37.13;;;29.10;;
35488;SDS011;21602;55.670;37.578;2023-09-19T02:04:01;38.35;;;29.20;;
35488;SDS011;21602;55.670;37.578;2023-09-19T02:06:29;36.83;;;28.60;;
35488;SDS011;21602;55.670;37.578;2023-09-19T02:08:56;40.17;;;28.30;;
35488;SDS011;21602;55.670;37.578;2023-09-19T02:11:23;45.75;;;31.42;;
35488;SDS011;21602;55.670;37.578;2023-09-19T02:13:49;42.53;;;28.10;;
35488;SDS011;21602;55.670;37.578;2023-09-19T02:16:20;39.10;;;28.67;;
35488;SDS011;21602;55.670;37.578;2023-09-19T02:18:50;41.00;;;28.55;;
35488;SDS011;21602;55.670;37.578;2023-09-19T02:21:17;43.28;;;28.55;;
35488;SDS011;21602;55.670;37.578;2023-09-19T02:23:44;39.72;;;27.88;;
35488;SDS011;21602;55.670;37.578;2023-09-19T02:26:13;42.67;;;28.92;;
35488;SDS011;21602;55.670;37.578;2023-09-19T02:28:41;40.70;;;29.88;;
35488;SDS011;21602;55.670;37.578;2023-09-19T02:31:09;41.83;;;28.27;;
35488;SDS011;21602;55.670;37.578;2023-09-19T02:33:35;42.80;;;29.38;;
35488;SDS011;21602;55.670;37.578;2023-09-19T02:36:03;39.10;;;26.17;;
35488;SDS011;21602;55.670;37.578;2023-09-19T02:38:29;40.38;;;27.55;;
35488;SDS011;21602;55.670;37.578;2023-09-19T02:40:56;33.72;;;25.65;;
35488;SDS011;21602;55.670;37.578;2023-09-19T02:43:22;38.90;;;27.30;;
35488;SDS011;21602;55.670;37.578;2023-09-19T02:45:49;41.90;;;25.92;;
35488;SDS011;21602;55.670;37.578;2023-09-19T02:48:16;40.40;;;27.02;;
35488;SDS011;21602;55.670;37.578;2023-09-19T02:50:44;47.50;;;26.88;;
35488;SDS011;21602;55.670;37.578;2023-09-19T02:53:10;45.03;;;27.40;;
35488;SDS011;21602;55.670;37.578;2023-09-19T02:55:39;39.80;;;26.00;;
35488;SDS011;21602;55.670;37.578;2023-09-19T02:58:09;45.85;;;28.00;;
35488;SDS011;21602;55.670;37.578;2023-09-19T03:00:40;41.40;;;28.08;;
35488;SDS011;21602;55.670;37.578;2023-09-19T03:03:13;41.83;;;26.08;;
35488;SDS011;21602;55.670;37.578;2023-09-19T03:05:41;39.72;;;26.35;;
35488;SDS011;21602;55.670;37.578;2023-09-19T03:08:15;38.78;;;27.10;;
35488;SDS011;21602;55.670;37.578;2023-09-19T03:10:45;44.63;;;27.40;;
35488;SDS011;21602;55.670;37.578;2023-09-19T03:13:12;38.67;;;25.95;;
35488;SDS011;21602;55.670;37.578;2023-09-19T03:15:41;46.35;;;26.85;;
35488;SDS011;21602;55.670;37.578;2023-09-19T03:18:10;41.13;;;27.40;;
35488;SDS011;21602;55.670;37.578;2023-09-19T03:20:37;38.90;;;25.98;;
35488;SDS011;21602;55.670;37.578;2023-09-19T03:23:04;36.57;;;25.53;;
35488;SDS011;21602;55.670;37.578;2023-09-19T03:25:33;40.00;;;27.20;;
35488;SDS011;21602;55.670;37.578;2023-09-19T03:28:01;33.45;;;24.85;;
35488;SDS011;21602;55.670;37.578;2023-09-19T03:30:31;39.75;;;26.25;;
35488;SDS011;21602;55.670;37.578;2023-09-19T03:33:00;35.03;;;25.55;;
35488;SDS011;21602;55.670;37.578;2023-09-19T03:35:26;40.40;;;24.55;;
35488;SDS011;21602;55.670;37.578;2023-09-19T03:37:52;39.03;;;25.48;;
35488;SDS011;21602;55.670;37.578;2023-09-19T03:40:20;37.35;;;25.42;;
35488;SDS011;21602;55.670;37.578;2023-09-19T03:42:49;36.33;;;25.00;;
35488;SDS011;21602;55.670;37.578;2023-09-19T03:45:15;37.60;;;25.50;;
35488;SDS011;21602;55.670;37.578;2023-09-19T03:47:47;34.53;;;26.27;;
35488;SDS011;21602;55.670;37.578;2023-09-19T03:50:15;37.65;;;25.17;;
35488;SDS011;21602;55.670;37.578;2023-09-19T03:52:46;33.60;;;25.23;;
35488;SDS011;21602;55.670;37.578;2023-09-19T03:55:12;38.13;;;25.75;;
35488;SDS011;21602;55.670;37.578;2023-09-19T03:57:40;35.93;;;25.77;;
35488;SDS011;21602;55.670;37.578;2023-09-19T04:00:09;38.63;;;26.65;;
35488;SDS011;21602;55.670;37.578;2023-09-19T04:02:43;37.17;;;26.08;;
35488;SDS011;21602;55.670;37.578;2023-09-19T04:05:11;39.78;;;28.13;;
35488;SDS011;21602;55.670;37.578;2023-09-19T04:07:37;38.00;;;26.20;;
35488;SDS011;21602;55.670;37.578;2023-09-19T04:15:00;47.10;;;25.63;;
35488;SDS011;21602;55.670;37.578;2023-09-19T04:17:26;39.25;;;25.00;;
35488;SDS011;21602;55.670;37.578;2023-09-19T04:19:52;34.30;;;23.80;;
35488;SDS011;21602;55.670;37.578;2023-09-19T04:22:19;35.47;;;22.80;;
35488;SDS011;21602;55.670;37.578;2023-09-19T04:24:45;34.25;;;25.92;;
35488;SDS011;21602;55.670;37.578;2023-09-19T04:27:11;31.92;;;22.95;;
35488;SDS011;21602;55.670;37.578;2023-09-19T04:29:40;28.50;;;22.80;;
35488;SDS011;21602;55.670;37.578;2023-09-19T04:32:07;34.63;;;24.20;;
35488;SDS011;21602;55.670;37.578;2023-09-19T04:34:42;34.00;;;22.60;;
35488;SDS011;21602;55.670;37.578;2023-09-19T04:37:11;30.27;;;23.33;;
35488;SDS011;21602;55.670;37.578;2023-09-19T04:39:36;24.40;;;19.42;;
35488;SDS011;21602;55.670;37.578;2023-09-19T04:42:03;26.13;;;19.98;;
35488;SDS011;21602;55.670;37.578;2023-09-19T04:44:29;26.58;;;19.90;;
35488;SDS011;21602;55.670;37.578;2023-09-19T04:46:55;27.33;;;18.85;;
35488;SDS011;21602;55.670;37.578;2023-09-19T04:49:21;28.30;;;18.52;;
35488;SDS011;21602;55.670;37.578;2023-09-19T04:51:47;27.48;;;19.40;;
35488;SDS011;21602;55.670;37.578;2023-09-19T04:54:13;38.50;;;22.13;;
35488;SDS011;21602;55.670;37.578;2023-09-19T04:56:41;38.25;;;22.17;;
35488;SDS011;21602;55.670;37.578;2023-09-19T04:59:07;30.33;;;19.88;;
35488;SDS011;21602;55.670;37.578;2023-09-19T05:01:36;28.33;;;17.73;;
35488;SDS011;21602;55.670;37.578;2023-09-19T05:04:02;37.00;;;22.23;;
35488;SDS011;21602;55.670;37.578;2023-09-19T05:06:30;25.70;;;17.42;;
35488;SDS011;21602;55.670;37.578;2023-09-19T05:08:56;28.85;;;18.27;;
35488;SDS011;21602;55.670;37.578;2023-09-19T05:11:23;39.05;;;21.98;;
35488;SDS011;21602;55.670;37.578;2023-09-19T05:13:50;24.23;;;17.55;;
35488;SDS011;21602;55.670;37.578;2023-09-19T05:16:16;27.30;;;17.17;;
35488;SDS011;21602;55.670;37.578;2023-09-19T05:18:50;27.80;;;18.05;;
35488;SDS011;21602;55.670;37.578;2023-09-19T05:21:16;37.15;;;19.80;;
35488;SDS011;21602;55.670;37.578;2023-09-19T05:23:45;27.33;;;17.98;;
35488;SDS011;21602;55.670;37.578;2023-09-19T05:26:11;29.33;;;18.73;;
35488;SDS011;21602;55.670;37.578;2023-09-19T05:28:40;33.72;;;22.77;;
35488;SDS011;21602;55.670;37.578;2023-09-19T05:31:10;35.40;;;25.58;;
35488;SDS011;21602;55.670;37.578;2023-09-19T05:33:36;28.15;;;17.13;;
35488;SDS011;21602;55.670;37.578;2023-09-19T05:36:03;22.80;;;16.02;;
35488;SDS011;21602;55.670;37.578;2023-09-19T05:38:29;26.77;;;18.90;;
35488;SDS011;21602;55.670;37.578;2023-09-19T05:40:55;28.13;;;17.50;;
35488;SDS011;21602;55.670;37.578;2023-09-19T05:43:21;28.38;;;19.60;;
35488;SDS011;21602;55.670;37.578;2023-09-19T05:45:47;27.23;;;15.52;;
35488;SDS011;21602;55.670;37.578;2023-09-19T05:48:17;22.83;;;16.27;;
35488;SDS011;21602;55.670;37.578;2023-09-19T05:50:43;21.98;;;15.73;;
35488;SDS011;21602;55.670;37.578;2023-09-19T05:53:12;21.88;;;15.40;;
35488;SDS011;21602;55.670;37.578;2023-09-19T05:55:40;21.35;;;14.73;;
35488;SDS011;21602;55.670;37.578;2023-09-19T05:58:10;18.97;;;12.90;;
35488;SDS011;21602;55.670;37.578;2023-09-19T06:00:40;29.25;;;17.73;;
35488;SDS011;21602;55.670;37.578;2023-09-19T06:03:09;35.45;;;19.52;;
35488;SDS011;21602;55.670;37.578;2023-09-19T06:05:38;24.92;;;15.00;;
35488;SDS011;21602;55.670;37.578;2023-09-19T06:08:08;25.80;;;14.60;;
35488;SDS011;21602;55.670;37.578;2023-09-19T06:10:37;22.88;;;14.27;;
35488;SDS011;21602;55.670;37.578;2023-09-19T06:13:05;21.10;;;13.98;;
35488;SDS011;21602;55.670;37.578;2023-09-19T06:15:35;17.83;;;13.57;;
35488;SDS011;21602;55.670;37.578;2023-09-19T06:18:01;26.13;;;14.05;;
35488;SDS011;21602;55.670;37.578;2023-09-19T06:20:30;21.33;;;14.13;;
35488;SDS011;21602;55.670;37.578;2023-09-19T06:22:56;20.13;;;13.55;;
35488;SDS011;21602;55.670;37.578;2023-09-19T06:25:25;22.30;;;13.15;;
35488;SDS011;21602;55.670;37.578;2023-09-19T06:27:51;21.48;;;14.45;;
35488;SDS011;21602;55.670;37.578;2023-09-19T06:30:20;22.27;;;14.40;;
35488;SDS011;21602;55.670;37.578;2023-09-19T06:32:57;20.55;;;14.82;;
35488;SDS011;21602;55.670;37.578;2023-09-19T06:35:24;22.58;;;13.82;;
35488;SDS011;21602;55.670;37.578;2023-09-19T06:37:51;19.23;;;14.40;;
35488;SDS011;21602;55.670;37.578;2023-09-19T06:40:18;26.13;;;18.80;;
35488;SDS011;21602;55.670;37.578;2023-09-19T06:42:49;20.50;;;15.98;;
35488;SDS011;21602;55.670;37.578;2023-09-19T06:45:19;30.13;;;16.52;;
35488;SDS011;21602;55.670;37.578;2023-09-19T06:47:50;24.93;;;19.00;;
35488;SDS011;21602;55.670;37.578;2023-09-19T06:50:20;26.13;;;18.60;;
35488;SDS011;21602;55.670;37.578;2023-09-19T06:52:56;30.25;;;19.20;;
35488;SDS011;21602;55.670;37.578;2023-09-19T06:55:25;19.05;;;14.05;;
35488;SDS011;21602;55.670;37.578;2023-09-19T06:57:55;30.02;;;19.75;;
35488;SDS011;21602;55.670;37.578;2023-09-19T07:00:21;16.27;;;13.57;;
35488;SDS011;21602;55.670;37.578;2023-09-19T07:05:35;26.08;;;15.65;;
35488;SDS011;21602;55.670;37.578;2023-09-19T07:08:03;24.80;;;15.60;;
35488;SDS011;21602;55.670;37.578;2023-09-19T07:10:32;24.15;;;13.85;;
35488;SDS011;21602;55.670;37.578;2023-09-19T07:15:30;17.70;;;14.55;;
35488;SDS011;21602;55.670;37.578;2023-09-19T07:18:01;21.95;;;14.48;;
35488;SDS011;21602;55.670;37.578;2023-09-19T07:20:30;23.17;;;14.30;;
35488;SDS011;21602;55.670;37.578;2023-09-19T07:22:58;26.77;;;14.73;;
35488;SDS011;21602;55.670;37.578;2023-09-19T07:25:25;20.40;;;14.68;;
35488;SDS011;21602;55.670;37.578;2023-09-19T07:27:52;18.35;;;14.55;;
35488;SDS011;21602;55.670;37.578;2023-09-19T07:32:46;25.85;;;15.27;;
35488;SDS011;21602;55.670;37.578;2023-09-19T07:35:14;31.70;;;19.52;;
35488;SDS011;21602;55.670;37.578;2023-09-19T07:37:40;22.80;;;14.52;;
35488;SDS011;21602;55.670;37.578;2023-09-19T07:40:06;21.30;;;13.90;;
35488;SDS011;21602;55.670;37.578;2023-09-19T07:42:33;33.20;;;22.23;;
35488;SDS011;21602;55.670;37.578;2023-09-19T07:45:01;17.77;;;12.20;;
35488;SDS011;21602;55.670;37.578;2023-09-19T07:47:29;26.17;;;16.30;;
35488;SDS011;21602;55.670;37.578;2023-09-19T07:49:56;25.55;;;14.63;;
35488;SDS011;21602;55.670;37.578;2023-09-19T07:52:22;21.27;;;14.30;;
35488;SDS011;21602;55.670;37.578;2023-09-19T07:54:48;23.63;;;15.20;;
35488;SDS011;21602;55.670;37.578;2023-09-19T07:57:16;18.45;;;11.88;;
35488;SDS011;21602;55.670;37.578;2023-09-19T07:59:42;25.52;;;14.88;;
35488;SDS011;21602;55.670;37.578;2023-09-19T08:02:09;25.27;;;16.77;;
35488;SDS011;21602;55.670;37.578;2023-09-19T08:04:45;31.70;;;14.18;;
35488;SDS011;21602;55.670;37.578;2023-09-19T08:07:18;20.90;;;13.70;;
35488;SDS011;21602;55.670;37.578;2023-09-19T08:09:44;25.98;;;13.68;;
35488;SDS011;21602;55.670;37.578;2023-09-19T08:12:12;21.45;;;13.90;;
35488;SDS011;21602;55.670;37.578;2023-09-19T08:14:38;22.95;;;13.85;;
35488;SDS011;21602;55.670;37.578;2023-09-19T08:17:10;30.02;;;14.20;;
35488;SDS011;21602;55.670;37.578;2023-09-19T08:19:36;18.90;;;13.38;;
35488;SDS011;21602;55.670;37.578;2023-09-19T08:22:02;24.08;;;13.57;;
35488;SDS011;21602;55.670;37.578;2023-09-19T08:24:28;18.00;;;12.18;;
35488;SDS011;21602;55.670;37.578;2023-09-19T08:26:55;21.40;;;14.63;;
35488;SDS011;21602;55.670;37.578;2023-09-19T08:29:24;18.58;;;14.85;;
35488;SDS011;21602;55.670;37.578;2023-09-19T08:31:54;22.83;;;14.23;;
35488;SDS011;21602;55.670;37.578;2023-09-19T08:34:25;22.75;;;14.23;;
35488;SDS011;21602;55.670;37.578;2023-09-19T08:36:52;28.00;;;14.80;;
35488;SDS011;21602;55.670;37.578;2023-09-19T08:39:22;16.67;;;14.60;;
35488;SDS011;21602;55.670;37.578;2023-09-19T08:41:49;24.33;;;14.93;;
35488;SDS011;21602;55.670;37.578;2023-09-19T08:44:15;26.95;;;14.88;;
35488;SDS011;21602;55.670;37.578;2023-09-19T08:46:42;22.50;;;14.15;;
35488;SDS011;21602;55.670;37.578;2023-09-19T08:52:22;21.30;;;12.70;;
35488;SDS011;21602;55.670;37.578;2023-09-19T08:54:53;23.83;;;15.35;;
35488;SDS011;21602;55.670;37.578;2023-09-19T08:57:24;24.98;;;14.73;;
35488;SDS011;21602;55.670;37.578;2023-09-19T08:59:55;18.10;;;12.73;;
35488;SDS011;21602;55.670;37.578;2023-09-19T09:02:22;18.25;;;13.43;;
35488;SDS011;21602;55.670;37.578;2023-09-19T09:04:49;19.73;;;12.45;;
35488;SDS011;21602;55.670;37.578;2023-09-19T09:07:17;18.08;;;13.25;;
35488;SDS011;21602;55.670;37.578;2023-09-19T09:09:44;17.17;;;11.98;;
35488;SDS011;21602;55.670;37.578;2023-09-19T09:12:12;23.92;;;13.98;;
35488;SDS011;21602;55.670;37.578;2023-09-19T09:14:44;17.98;;;13.15;;
35488;SDS011;21602;55.670;37.578;2023-09-19T09:17:16;24.35;;;13.18;;
35488;SDS011;21602;55.670;37.578;2023-09-19T09:19:46;16.00;;;13.02;;
35488;SDS011;21602;55.670;37.578;2023-09-19T09:22:16;17.88;;;15.27;;
35488;SDS011;21602;55.670;37.578;2023-09-19T09:24:58;22.45;;;13.80;;
35488;SDS011;21602;55.670;37.578;2023-09-19T09:27:24;21.48;;;14.40;;
35488;SDS011;21602;55.670;37.578;2023-09-19T09:29:51;22.92;;;13.50;;
35488;SDS011;21602;55.670;37.578;2023-09-19T09:32:21;21.30;;;14.77;;
35488;SDS011;21602;55.670;37.578;2023-09-19T09:34:52;18.52;;;13.23;;
35488;SDS011;21602;55.670;37.578;2023-09-19T09:37:22;18.85;;;13.38;;
35488;SDS011;21602;55.670;37.578;2023-09-19T09:40:00;25.92;;;17.02;;
35488;SDS011;21602;55.670;37.578;2023-09-19T09:42:40;28.52;;;16.20;;
35488;SDS011;21602;55.670;37.578;2023-09-19T09:45:19;29.70;;;16.10;;
35488;SDS011;21602;55.670;37.578;2023-09-19T09:48:00;17.88;;;13.73;;
35488;SDS011;21602;55.670;37.578;2023-09-19T09:50:45;20.23;;;13.88;;
35488;SDS011;21602;55.670;37.578;2023-09-19T09:53:25;19.98;;;13.65;;
35488;SDS011;21602;55.670;37.578;2023-09-19T09:55:59;19.30;;;13.70;;
35488;SDS011;21602;55.670;37.578;2023-09-19T09:58:26;23.42;;;14.38;;
35488;SDS011;21602;55.670;37.578;2023-09-19T10:00:57;16.05;;;13.75;;
35488;SDS011;21602;55.670;37.578;2023-09-19T10:03:37;27.10;;;13.77;;
35488;SDS011;21602;55.670;37.578;2023-09-19T10:06:08;22.65;;;14.50;;
35488;SDS011;21602;55.670;37.578;2023-09-19T10:09:02;25.67;;;13.53;;
35488;SDS011;21602;55.670;37.578;2023-09-19T10:11:45;23.83;;;14.30;;
35488;SDS011;21602;55.670;37.578;2023-09-19T10:14:19;19.45;;;12.02;;
35488;SDS011;21602;55.670;37.578;2023-09-19T10:16:50;19.50;;;13.20;;
35488;SDS011;21602;55.670;37.578;2023-09-19T10:22:27;15.75;;;13.48;;
35488;SDS011;21602;55.670;37.578;2023-09-19T10:24:56;27.05;;;14.00;;
35488;SDS011;21602;55.670;37.578;2023-09-19T10:27:28;19.48;;;12.35;;
35488;SDS011;21602;55.670;37.578;2023-09-19T10:29:55;24.33;;;12.57;;
35488;SDS011;21602;55.670;37.578;2023-09-19T10:32:25;29.38;;;12.73;;
35488;SDS011;21602;55.670;37.578;2023-09-19T10:34:53;25.85;;;11.90;;
35488;SDS011;21602;55.670;37.578;2023-09-19T10:37:21;23.40;;;13.07;;
35488;SDS011;21602;55.670;37.578;2023-09-19T10:39:53;18.27;;;11.98;;
35488;SDS011;21602;55.670;37.578;2023-09-19T10:42:22;19.52;;;11.90;;
35488;SDS011;21602;55.670;37.578;2023-09-19T10:44:54;26.50;;;12.75;;
35488;SDS011;21602;55.670;37.578;2023-09-19T10:47:25;19.67;;;12.85;;
35488;SDS011;21602;55.670;37.578;2023-09-19T10:49:52;17.50;;;12.50;;
35488;SDS011;21602;55.670;37.578;2023-09-19T10:52:20;18.52;;;11.93;;
35488;SDS011;21602;55.670;37.578;2023-09-19T10:54:50;26.23;;;12.77;;
35488;SDS011;21602;55.670;37.578;2023-09-19T10:57:24;22.45;;;12.73;;
35488;SDS011;21602;55.670;37.578;2023-09-19T11:00:03;18.67;;;11.93;;
35488;SDS011;21602;55.670;37.578;2023-09-19T11:03:15;21.40;;;11.77;;
35488;SDS011;21602;55.670;37.578;2023-09-19T11:05:44;23.25;;;13.52;;
35488;SDS011;21602;55.670;37.578;2023-09-19T11:08:58;27.98;;;12.45;;
35488;SDS011;21602;55.670;37.578;2023-09-19T11:11:41;21.85;;;12.45;;
35488;SDS011;21602;55.670;37.578;2023-09-19T11:30:53;19.88;;;12.05;;
35488;SDS011;21602;55.670;37.578;2023-09-19T11:46:20;16.85;;;11.15;;
35488;SDS011;21602;55.670;37.578;2023-09-19T11:48:50;19.17;;;10.70;;
35488;SDS011;21602;55.670;37.578;2023-09-19T11:53:45;18.73;;;10.52;;
35488;SDS011;21602;55.670;37.578;2023-09-19T11:56:17;13.13;;;9.43;;
35488;SDS011;21602;55.670;37.578;2023-09-19T11:58:44;15.07;;;10.40;;
35488;SDS011;21602;55.670;37.578;2023-09-19T12:01:14;12.80;;;9.38;;
35488;SDS011;21602;55.670;37.578;2023-09-19T12:03:47;19.38;;;9.98;;
35488;SDS011;21602;55.670;37.578;2023-09-19T12:06:18;18.67;;;9.40;;
35488;SDS011;21602;55.670;37.578;2023-09-19T12:08:44;12.02;;;8.30;;
35488;SDS011;21602;55.670;37.578;2023-09-19T12:11:13;13.40;;;9.23;;
35488;SDS011;21602;55.670;37.578;2023-09-19T12:13:44;16.95;;;8.50;;
35488;SDS011;21602;55.670;37.578;2023-09-19T12:16:15;16.23;;;8.75;;
35488;SDS011;21602;55.670;37.578;2023-09-19T12:18:46;12.82;;;8.38;;
35488;SDS011;21602;55.670;37.578;2023-09-19T12:21:25;14.32;;;8.48;;
35488;SDS011;21602;55.670;37.578;2023-09-19T12:24:03;11.57;;;8.65;;
35488;SDS011;21602;55.670;37.578;2023-09-19T12:26:39;13.38;;;8.88;;
35488;SDS011;21602;55.670;37.578;2023-09-19T12:29:14;11.70;;;8.50;;
35488;SDS011;21602;55.670;37.578;2023-09-19T12:31:56;14.60;;;7.55;;
35488;SDS011;21602;55.670;37.578;2023-09-19T12:34:27;17.17;;;8.68;;
35488;SDS011;21602;55.670;37.578;2023-09-19T12:37:07;12.05;;;8.20;;
35488;SDS011;21602;55.670;37.578;2023-09-19T12:39:44;13.95;;;7.82;;
35488;SDS011;21602;55.670;37.578;2023-09-19T12:42:22;11.52;;;7.55;;
35488;SDS011;21602;55.670;37.578;2023-09-19T12:44:52;11.18;;;7.38;;
35488;SDS011;21602;55.670;37.578;2023-09-19T12:47:24;8.55;;;7.13;;
35488;SDS011;21602;55.670;37.578;2023-09-19T12:52:52;10.77;;;6.40;;
35488;SDS011;21602;55.670;37.578;2023-09-19T12:55:25;13.57;;;7.15;;
35488;SDS011;21602;55.670;37.578;2023-09-19T13:00:45;11.05;;;7.18;;
35488;SDS011;21602;55.670;37.578;2023-09-19T13:03:18;12.05;;;7.20;;
35488;SDS011;21602;55.670;37.578;2023-09-19T13:08:25;13.95;;;6.75;;
35488;SDS011;21602;55.670;37.578;2023-09-19T13:13:49;19.02;;;6.28;;
35488;SDS011;21602;55.670;37.578;2023-09-19T13:16:33;10.45;;;6.47;;
35488;SDS011;21602;55.670;37.578;2023-09-19T13:18:59;9.23;;;5.70;;
35488;SDS011;21602;55.670;37.578;2023-09-19T13:21:32;11.10;;;5.80;;
35488;SDS011;21602;55.670;37.578;2023-09-19T13:24:22;8.48;;;6.20;;
35488;SDS011;21602;55.670;37.578;2023-09-19T13:26:51;8.88;;;5.82;;
35488;SDS011;21602;55.670;37.578;2023-09-19T13:29:17;8.95;;;6.68;;
35488;SDS011;21602;55.670;37.578;2023-09-19T13:31:47;14.57;;;6.50;;
35488;SDS011;21602;55.670;37.578;2023-09-19T13:34:15;10.07;;;7.32;;
35488;SDS011;21602;55.670;37.578;2023-09-19T13:36:43;8.45;;;6.60;;
35488;SDS011;21602;55.670;37.578;2023-09-19T13:39:10;11.88;;;6.78;;
35488;SDS011;21602;55.670;37.578;2023-09-19T13:41:39;13.30;;;7.30;;
35488;SDS011;21602;55.670;37.578;2023-09-19T13:44:05;11.88;;;7.15;;
35488;SDS011;21602;55.670;37.578;2023-09-19T13:46:31;13.55;;;7.80;;
35488;SDS011;21602;55.670;37.578;2023-09-19T13:49:01;8.93;;;7.25;;
35488;SDS011;21602;55.670;37.578;2023-09-19T13:51:30;16.77;;;7.60;;
35488;SDS011;21602;55.670;37.578;2023-09-19T13:53:57;21.45;;;8.85;;
35488;SDS011;21602;55.670;37.578;2023-09-19T13:56:23;12.10;;;8.20;;
35488;SDS011;21602;55.670;37.578;2023-09-19T13:58:51;11.95;;;7.47;;
35488;SDS011;21602;55.670;37.578;2023-09-19T14:01:18;14.68;;;7.60;;
35488;SDS011;21602;55.670;37.578;2023-09-19T14:03:44;20.67;;;8.75;;
35488;SDS011;21602;55.670;37.578;2023-09-19T14:06:13;12.35;;;8.45;;
35488;SDS011;21602;55.670;37.578;2023-09-19T14:08:39;13.73;;;7.95;;
35488;SDS011;21602;55.670;37.578;2023-09-19T14:11:06;13.02;;;9.05;;
35488;SDS011;21602;55.670;37.578;2023-09-19T14:13:32;18.35;;;10.30;;
35488;SDS011;21602;55.670;37.578;2023-09-19T14:16:02;12.88;;;8.30;;
35488;SDS011;21602;55.670;37.578;2023-09-19T14:18:30;17.80;;;9.05;;
35488;SDS011;21602;55.670;37.578;2023-09-19T14:20:57;15.55;;;9.25;;
35488;SDS011;21602;55.670;37.578;2023-09-19T14:23:23;16.33;;;9.57;;
35488;SDS011;21602;55.670;37.578;2023-09-19T14:25:52;19.73;;;10.02;;
35488;SDS011;21602;55.670;37.578;2023-09-19T14:28:19;21.40;;;9.98;;
35488;SDS011;21602;55.670;37.578;2023-09-19T14:30:45;15.13;;;8.98;;
35488;SDS011;21602;55.670;37.578;2023-09-19T14:33:11;16.15;;;9.43;;
35488;SDS011;21602;55.670;37.578;2023-09-19T14:35:41;26.88;;;11.43;;
35488;SDS011;21602;55.670;37.578;2023-09-19T14:38:06;17.30;;;14.32;;
35488;SDS011;21602;55.670;37.578;2023-09-19T14:40:32;14.65;;;9.68;;
35488;SDS011;21602;55.670;37.578;2023-09-19T14:42:58;14.65;;;9.30;;
35488;SDS011;21602;55.670;37.578;2023-09-19T14:45:24;14.23;;;9.60;;
35488;SDS011;21602;55.670;37.578;2023-09-19T14:47:51;14.07;;;9.27;;
35488;SDS011;21602;55.670;37.578;2023-09-19T14:50:20;15.60;;;9.75;;
35488;SDS011;21602;55.670;37.578;2023-09-19T14:52:47;15.13;;;8.48;;
35488;SDS011;21602;55.670;37.578;2023-09-19T14:57:42;17.25;;;9.23;;
35488;SDS011;21602;55.670;37.578;2023-09-19T15:00:10;14.40;;;8.48;;
35488;SDS011;21602;55.670;37.578;2023-09-19T15:02:38;19.88;;;8.13;;
35488;SDS011;21602;55.670;37.578;2023-09-19T15:05:06;13.38;;;8.73;;
35488;SDS011;21602;55.670;37.578;2023-09-19T15:07:36;15.45;;;8.27;;
35488;SDS011;21602;55.670;37.578;2023-09-19T15:10:04;12.80;;;8.85;;
35488;SDS011;21602;55.670;37.578;2023-09-19T15:12:32;21.65;;;8.75;;
35488;SDS011;21602;55.670;37.578;2023-09-19T15:14:58;19.05;;;7.55;;
35488;SDS011;21602;55.670;37.578;2023-09-19T15:17:24;14.57;;;7.50;;
35488;SDS011;21602;55.670;37.578;2023-09-19T15:19:52;18.48;;;8.05;;
35488;SDS011;21602;55.670;37.578;2023-09-19T15:22:18;24.17;;;7.85;;
35488;SDS011;21602;55.670;37.578;2023-09-19T15:24:46;16.35;;;7.18;;
35488;SDS011;21602;55.670;37.578;2023-09-19T15:27:12;14.63;;;7.20;;
35488;SDS011;21602;55.670;37.578;2023-09-19T15:29:39;15.83;;;7.40;;
35488;SDS011;21602;55.670;37.578;2023-09-19T15:32:05;19.80;;;7.78;;
35488;SDS011;21602;55.670;37.578;2023-09-19T15:34:31;16.98;;;7.28;;
35488;SDS011;21602;55.670;37.578;2023-09-19T15:36:57;15.52;;;7.88;;
35488;SDS011;21602;55.670;37.578;2023-09-19T15:39:23;16.88;;;7.35;;
35488;SDS011;21602;55.670;37.578;2023-09-19T15:41:49;22.80;;;8.13;;
35488;SDS011;21602;55.670;37.578;2023-09-19T15:44:17;18.83;;;7.28;;
35488;SDS011;21602;55.670;37.578;2023-09-19T15:46:45;11.05;;;7.78;;
35488;SDS011;21602;55.670;37.578;2023-09-19T15:49:11;23.92;;;8.88;;
35488;SDS011;21602;55.670;37.578;2023-09-19T15:51:38;20.88;;;8.60;;
35488;SDS011;21602;55.670;37.578;2023-09-19T15:54:13;21.95;;;8.55;;
35488;SDS011;21602;55.670;37.578;2023-09-19T15:56:42;25.42;;;8.60;;
35488;SDS011;21602;55.670;37.578;2023-09-19T15:59:09;12.75;;;7.38;;